sensor_id;sensor_type;location;lat;lon;timestamp;P1;durP1;ratioP1;P2;durP2;ratioP2
21621;SDS011;10973;46.706;12.340;2023-03-01T00:01:21;13.47;;;8.87;;
21621;SDS011;10973;46.706;12.340;2023-03-01T00:03:52;13.87;;;9.43;;
21621;SDS011;10973;46.706;12.340;2023-03-01T00:06:21;15.17;;;9.93;;
21621;SDS011;10973;46.706;12.340;2023-03-01T00:08:49;12.10;;;10.27;;
21621;SDS011;10973;46.706;12.340;2023-03-01T00:13:53;12.07;;;9.47;;
21621;SDS011;10973;46.706;12.340;2023-03-01T00:16:27;11.70;;;9.00;;
21621;SDS011;10973;46.706;12.340;2023-03-01T00:18:59;10.70;;;8.53;;
21621;SDS011;10973;46.706;12.340;2023-03-01T00:21:26;11.37;;;8.50;;
21621;SDS011;10973;46.706;12.340;2023-03-01T00:23:54;10.90;;;8.37;;
21621;SDS011;10973;46.706;12.340;2023-03-01T00:26:23;9.53;;;8.03;;
21621;SDS011;10973;46.706;12.340;2023-03-01T00:28:52;9.43;;;8.00;;
21621;SDS011;10973;46.706;12.340;2023-03-01T00:31:22;8.90;;;8.03;;
21621;SDS011;10973;46.706;12.340;2023-03-01T00:33:57;11.33;;;8.73;;
21621;SDS011;10973;46.706;12.340;2023-03-01T00:36:31;11.43;;;8.10;;
21621;SDS011;10973;46.706;12.340;2023-03-01T00:39:03;15.17;;;8.73;;
21621;SDS011;10973;46.706;12.340;2023-03-01T00:41:34;11.10;;;8.17;;
21621;SDS011;10973;46.706;12.340;2023-03-01T00:44:01;10.97;;;8.20;;
21621;SDS011;10973;46.706;12.340;2023-03-01T00:46:29;9.80;;;8.17;;
21621;SDS011;10973;46.706;12.340;2023-03-01T00:48:57;10.00;;;8.50;;
21621;SDS011;10973;46.706;12.340;2023-03-01T00:51:25;9.97;;;7.87;;
21621;SDS011;10973;46.706;12.340;2023-03-01T00:53:56;11.07;;;8.10;;
21621;SDS011;10973;46.706;12.340;2023-03-01T00:56:27;10.13;;;8.10;;
21621;SDS011;10973;46.706;12.340;2023-03-01T00:58:56;11.30;;;7.53;;
21621;SDS011;10973;46.706;12.340;2023-03-01T01:01:27;11.50;;;7.40;;
21621;SDS011;10973;46.706;12.340;2023-03-01T01:03:59;9.03;;;7.23;;
21621;SDS011;10973;46.706;12.340;2023-03-01T01:06:33;8.20;;;6.77;;
21621;SDS011;10973;46.706;12.340;2023-03-01T01:09:05;10.17;;;8.00;;
21621;SDS011;10973;46.706;12.340;2023-03-01T01:11:34;9.33;;;7.43;;
21621;SDS011;10973;46.706;12.340;2023-03-01T01:14:02;8.63;;;7.33;;
21621;SDS011;10973;46.706;12.340;2023-03-01T01:16:30;9.33;;;7.73;;
21621;SDS011;10973;46.706;12.340;2023-03-01T01:18:58;9.27;;;7.80;;
21621;SDS011;10973;46.706;12.340;2023-03-01T01:21:25;8.53;;;7.63;;
21621;SDS011;10973;46.706;12.340;2023-03-01T01:23:53;13.10;;;7.30;;
21621;SDS011;10973;46.706;12.340;2023-03-01T01:26:23;10.37;;;7.83;;
21621;SDS011;10973;46.706;12.340;2023-03-01T01:28:58;11.10;;;7.23;;
21621;SDS011;10973;46.706;12.340;2023-03-01T01:31:27;9.03;;;7.30;;
21621;SDS011;10973;46.706;12.340;2023-03-01T01:33:56;10.20;;;7.83;;
21621;SDS011;10973;46.706;12.340;2023-03-01T01:36:26;12.13;;;8.00;;
21621;SDS011;10973;46.706;12.340;2023-03-01T01:38:54;8.40;;;7.07;;
21621;SDS011;10973;46.706;12.340;2023-03-01T01:41:22;8.67;;;7.37;;
21621;SDS011;10973;46.706;12.340;2023-03-01T01:44:11;9.80;;;7.47;;
21621;SDS011;10973;46.706;12.340;2023-03-01T01:52:08;10.73;;;8.07;;
21621;SDS011;10973;46.706;12.340;2023-03-01T01:55:00;9.77;;;7.30;;
21621;SDS011;10973;46.706;12.340;2023-03-01T01:57:53;9.97;;;7.50;;
21621;SDS011;10973;46.706;12.340;2023-03-01T02:00:27;9.13;;;7.10;;
21621;SDS011;10973;46.706;12.340;2023-03-01T02:02:57;8.67;;;7.73;;
21621;SDS011;10973;46.706;12.340;2023-03-01T02:05:39;10.40;;;8.17;;
21621;SDS011;10973;46.706;12.340;2023-03-01T02:08:28;10.20;;;7.40;;
21621;SDS011;10973;46.706;12.340;2023-03-01T02:10:59;11.83;;;8.00;;
21621;SDS011;10973;46.706;12.340;2023-03-01T02:13:27;9.97;;;8.03;;
21621;SDS011;10973;46.706;12.340;2023-03-01T02:15:56;10.67;;;8.07;;
21621;SDS011;10973;46.706;12.340;2023-03-01T02:18:23;9.70;;;6.93;;
21621;SDS011;10973;46.706;12.340;2023-03-01T02:23:49;10.50;;;8.40;;
21621;SDS011;10973;46.706;12.340;2023-03-01T02:26:33;8.93;;;8.03;;
21621;SDS011;10973;46.706;12.340;2023-03-01T02:29:23;9.37;;;7.30;;
21621;SDS011;10973;46.706;12.340;2023-03-01T02:31:51;8.83;;;7.73;;
21621;SDS011;10973;46.706;12.340;2023-03-01T02:34:23;10.13;;;7.73;;
21621;SDS011;10973;46.706;12.340;2023-03-01T02:36:53;8.47;;;7.43;;
21621;SDS011;10973;46.706;12.340;2023-03-01T02:39:28;13.47;;;7.80;;
21621;SDS011;10973;46.706;12.340;2023-03-01T02:42:14;9.50;;;7.60;;
21621;SDS011;10973;46.706;12.340;2023-03-01T02:44:52;11.17;;;7.90;;
21621;SDS011;10973;46.706;12.340;2023-03-01T02:47:19;10.57;;;8.67;;
21621;SDS011;10973;46.706;12.340;2023-03-01T02:49:47;13.87;;;9.33;;
21621;SDS011;10973;46.706;12.340;2023-03-01T02:55:06;9.50;;;7.67;;
21621;SDS011;10973;46.706;12.340;2023-03-01T02:57:39;10.33;;;8.73;;
21621;SDS011;10973;46.706;12.340;2023-03-01T03:00:14;9.00;;;7.63;;
21621;SDS011;10973;46.706;12.340;2023-03-01T03:02:50;10.23;;;7.60;;
21621;SDS011;10973;46.706;12.340;2023-03-01T03:05:21;13.27;;;7.93;;
21621;SDS011;10973;46.706;12.340;2023-03-01T03:07:53;9.60;;;7.90;;
21621;SDS011;10973;46.706;12.340;2023-03-01T03:10:25;10.00;;;7.80;;
21621;SDS011;10973;46.706;12.340;2023-03-01T03:12:57;9.23;;;8.00;;
21621;SDS011;10973;46.706;12.340;2023-03-01T03:15:27;7.20;;;6.50;;
21621;SDS011;10973;46.706;12.340;2023-03-01T03:17:56;10.97;;;8.10;;
21621;SDS011;10973;46.706;12.340;2023-03-01T03:20:27;9.87;;;7.43;;
21621;SDS011;10973;46.706;12.340;2023-03-01T03:22:56;10.53;;;8.00;;
21621;SDS011;10973;46.706;12.340;2023-03-01T03:25:25;13.20;;;8.30;;
21621;SDS011;10973;46.706;12.340;2023-03-01T03:27:54;10.93;;;7.53;;
21621;SDS011;10973;46.706;12.340;2023-03-01T03:30:23;10.63;;;7.60;;
21621;SDS011;10973;46.706;12.340;2023-03-01T03:32:56;11.53;;;8.40;;
21621;SDS011;10973;46.706;12.340;2023-03-01T03:35:38;11.50;;;8.40;;
21621;SDS011;10973;46.706;12.340;2023-03-01T03:38:11;9.13;;;7.70;;
21621;SDS011;10973;46.706;12.340;2023-03-01T03:40:42;10.40;;;7.63;;
21621;SDS011;10973;46.706;12.340;2023-03-01T03:43:22;10.30;;;8.20;;
21621;SDS011;10973;46.706;12.340;2023-03-01T03:45:50;15.63;;;7.63;;
21621;SDS011;10973;46.706;12.340;2023-03-01T03:48:18;11.77;;;7.67;;
21621;SDS011;10973;46.706;12.340;2023-03-01T03:50:52;10.50;;;8.60;;
21621;SDS011;10973;46.706;12.340;2023-03-01T03:53:23;10.33;;;9.10;;
21621;SDS011;10973;46.706;12.340;2023-03-01T03:55:52;14.00;;;9.50;;
21621;SDS011;10973;46.706;12.340;2023-03-01T03:58:21;9.40;;;7.87;;
21621;SDS011;10973;46.706;12.340;2023-03-01T04:00:51;11.10;;;8.10;;
21621;SDS011;10973;46.706;12.340;2023-03-01T04:03:22;11.97;;;9.27;;
21621;SDS011;10973;46.706;12.340;2023-03-01T04:05:52;10.00;;;8.33;;
21621;SDS011;10973;46.706;12.340;2023-03-01T04:08:23;10.20;;;8.53;;
21621;SDS011;10973;46.706;12.340;2023-03-01T04:10:52;13.50;;;9.23;;
21621;SDS011;10973;46.706;12.340;2023-03-01T04:13:26;12.17;;;8.60;;
21621;SDS011;10973;46.706;12.340;2023-03-01T04:15:53;12.10;;;9.00;;
21621;SDS011;10973;46.706;12.340;2023-03-01T04:18:22;12.27;;;8.20;;
21621;SDS011;10973;46.706;12.340;2023-03-01T04:20:50;12.67;;;9.20;;
21621;SDS011;10973;46.706;12.340;2023-03-01T04:23:20;10.43;;;8.83;;
21621;SDS011;10973;46.706;12.340;2023-03-01T04:25:52;12.40;;;9.47;;
21621;SDS011;10973;46.706;12.340;2023-03-01T04:28:30;10.63;;;8.97;;
21621;SDS011;10973;46.706;12.340;2023-03-01T04:31:18;10.97;;;9.23;;
21621;SDS011;10973;46.706;12.340;2023-03-01T04:33:47;13.40;;;9.53;;
21621;SDS011;10973;46.706;12.340;2023-03-01T04:36:19;10.23;;;8.17;;
21621;SDS011;10973;46.706;12.340;2023-03-01T04:38:50;12.20;;;8.57;;
21621;SDS011;10973;46.706;12.340;2023-03-01T04:41:19;13.80;;;8.67;;
21621;SDS011;10973;46.706;12.340;2023-03-01T04:43:49;11.73;;;9.43;;
21621;SDS011;10973;46.706;12.340;2023-03-01T04:46:17;16.17;;;10.20;;
21621;SDS011;10973;46.706;12.340;2023-03-01T04:48:47;17.37;;;10.37;;
21621;SDS011;10973;46.706;12.340;2023-03-01T04:51:15;11.40;;;9.33;;
21621;SDS011;10973;46.706;12.340;2023-03-01T04:53:43;10.57;;;8.40;;
21621;SDS011;10973;46.706;12.340;2023-03-01T04:56:11;18.20;;;9.83;;
21621;SDS011;10973;46.706;12.340;2023-03-01T04:58:40;12.97;;;9.20;;
21621;SDS011;10973;46.706;12.340;2023-03-01T05:01:13;13.23;;;10.53;;
21621;SDS011;10973;46.706;12.340;2023-03-01T05:03:47;12.60;;;9.57;;
21621;SDS011;10973;46.706;12.340;2023-03-01T05:06:17;13.97;;;9.63;;
21621;SDS011;10973;46.706;12.340;2023-03-01T05:08:46;12.40;;;9.63;;
21621;SDS011;10973;46.706;12.340;2023-03-01T05:11:17;10.17;;;8.07;;
21621;SDS011;10973;46.706;12.340;2023-03-01T05:13:44;10.93;;;8.53;;
21621;SDS011;10973;46.706;12.340;2023-03-01T05:16:11;11.57;;;8.57;;
21621;SDS011;10973;46.706;12.340;2023-03-01T05:18:39;15.80;;;8.83;;
21621;SDS011;10973;46.706;12.340;2023-03-01T05:21:09;13.33;;;9.43;;
21621;SDS011;10973;46.706;12.340;2023-03-01T05:23:39;12.87;;;8.97;;
21621;SDS011;10973;46.706;12.340;2023-03-01T05:26:07;13.17;;;9.50;;
21621;SDS011;10973;46.706;12.340;2023-03-01T05:28:53;10.93;;;9.10;;
21621;SDS011;10973;46.706;12.340;2023-03-01T05:31:20;14.53;;;11.13;;
21621;SDS011;10973;46.706;12.340;2023-03-01T05:33:47;30.90;;;20.43;;
21621;SDS011;10973;46.706;12.340;2023-03-01T05:36:14;55.00;;;34.63;;
21621;SDS011;10973;46.706;12.340;2023-03-01T05:38:42;20.03;;;15.63;;
21621;SDS011;10973;46.706;12.340;2023-03-01T05:41:13;31.57;;;19.60;;
21621;SDS011;10973;46.706;12.340;2023-03-01T05:43:41;21.13;;;12.70;;
21621;SDS011;10973;46.706;12.340;2023-03-01T05:46:09;17.83;;;12.70;;
21621;SDS011;10973;46.706;12.340;2023-03-01T05:48:36;17.97;;;12.97;;
21621;SDS011;10973;46.706;12.340;2023-03-01T05:51:03;20.10;;;13.97;;
21621;SDS011;10973;46.706;12.340;2023-03-01T05:53:31;18.73;;;12.80;;
21621;SDS011;10973;46.706;12.340;2023-03-01T05:55:58;18.63;;;12.80;;
21621;SDS011;10973;46.706;12.340;2023-03-01T05:58:25;18.37;;;12.70;;
21621;SDS011;10973;46.706;12.340;2023-03-01T06:00:53;14.07;;;9.23;;
21621;SDS011;10973;46.706;12.340;2023-03-01T06:03:22;17.83;;;9.47;;
21621;SDS011;10973;46.706;12.340;2023-03-01T06:05:49;16.10;;;10.10;;
21621;SDS011;10973;46.706;12.340;2023-03-01T06:08:23;15.97;;;11.67;;
21621;SDS011;10973;46.706;12.340;2023-03-01T06:10:51;18.17;;;12.43;;
21621;SDS011;10973;46.706;12.340;2023-03-01T06:13:18;20.80;;;12.37;;
21621;SDS011;10973;46.706;12.340;2023-03-01T06:15:45;16.13;;;11.77;;
21621;SDS011;10973;46.706;12.340;2023-03-01T06:18:13;19.00;;;11.50;;
21621;SDS011;10973;46.706;12.340;2023-03-01T06:20:40;17.83;;;10.07;;
21621;SDS011;10973;46.706;12.340;2023-03-01T06:23:08;18.17;;;9.47;;
21621;SDS011;10973;46.706;12.340;2023-03-01T06:25:36;16.93;;;12.27;;
21621;SDS011;10973;46.706;12.340;2023-03-01T06:28:04;26.33;;;15.63;;
21621;SDS011;10973;46.706;12.340;2023-03-01T06:30:31;31.53;;;17.83;;
21621;SDS011;10973;46.706;12.340;2023-03-01T06:32:58;30.07;;;13.07;;
21621;SDS011;10973;46.706;12.340;2023-03-01T06:35:25;19.47;;;12.80;;
21621;SDS011;10973;46.706;12.340;2023-03-01T06:37:53;59.57;;;21.67;;
21621;SDS011;10973;46.706;12.340;2023-03-01T06:40:21;46.60;;;20.60;;
21621;SDS011;10973;46.706;12.340;2023-03-01T06:42:49;98.53;;;23.07;;
21621;SDS011;10973;46.706;12.340;2023-03-01T06:45:18;59.57;;;21.70;;
21621;SDS011;10973;46.706;12.340;2023-03-01T06:47:47;36.23;;;20.87;;
21621;SDS011;10973;46.706;12.340;2023-03-01T06:50:16;40.17;;;23.33;;
21621;SDS011;10973;46.706;12.340;2023-03-01T06:52:47;23.27;;;16.43;;
21621;SDS011;10973;46.706;12.340;2023-03-01T06:55:14;25.07;;;18.17;;
21621;SDS011;10973;46.706;12.340;2023-03-01T06:57:42;20.30;;;15.83;;
21621;SDS011;10973;46.706;12.340;2023-03-01T07:00:09;13.50;;;10.73;;
21621;SDS011;10973;46.706;12.340;2023-03-01T07:02:38;21.77;;;14.47;;
21621;SDS011;10973;46.706;12.340;2023-03-01T07:05:05;31.83;;;15.47;;
21621;SDS011;10973;46.706;12.340;2023-03-01T07:07:33;24.30;;;16.60;;
21621;SDS011;10973;46.706;12.340;2023-03-01T07:10:01;19.00;;;14.33;;
21621;SDS011;10973;46.706;12.340;2023-03-01T07:12:28;26.17;;;16.53;;
21621;SDS011;10973;46.706;12.340;2023-03-01T07:14:56;24.30;;;15.77;;
21621;SDS011;10973;46.706;12.340;2023-03-01T07:17:23;20.87;;;13.50;;
21621;SDS011;10973;46.706;12.340;2023-03-01T07:19:50;15.23;;;10.40;;
21621;SDS011;10973;46.706;12.340;2023-03-01T07:22:18;30.97;;;21.73;;
21621;SDS011;10973;46.706;12.340;2023-03-01T07:24:45;57.83;;;40.70;;
21621;SDS011;10973;46.706;12.340;2023-03-01T07:27:12;38.30;;;26.03;;
21621;SDS011;10973;46.706;12.340;2023-03-01T07:29:39;41.50;;;34.97;;
21621;SDS011;10973;46.706;12.340;2023-03-01T07:32:06;31.03;;;20.90;;
21621;SDS011;10973;46.706;12.340;2023-03-01T07:34:34;33.80;;;24.93;;
21621;SDS011;10973;46.706;12.340;2023-03-01T07:37:01;42.87;;;30.03;;
21621;SDS011;10973;46.706;12.340;2023-03-01T07:39:28;30.93;;;21.67;;
21621;SDS011;10973;46.706;12.340;2023-03-01T07:41:56;21.53;;;14.10;;
21621;SDS011;10973;46.706;12.340;2023-03-01T07:44:23;18.37;;;10.77;;
21621;SDS011;10973;46.706;12.340;2023-03-01T07:46:50;18.37;;;12.50;;
21621;SDS011;10973;46.706;12.340;2023-03-01T07:49:18;20.60;;;12.17;;
21621;SDS011;10973;46.706;12.340;2023-03-01T07:51:45;18.43;;;12.03;;
21621;SDS011;10973;46.706;12.340;2023-03-01T07:54:12;13.63;;;10.90;;
21621;SDS011;10973;46.706;12.340;2023-03-01T07:56:40;31.83;;;23.87;;
21621;SDS011;10973;46.706;12.340;2023-03-01T07:59:07;14.60;;;12.53;;
21621;SDS011;10973;46.706;12.340;2023-03-01T08:01:34;20.80;;;13.17;;
21621;SDS011;10973;46.706;12.340;2023-03-01T08:04:02;16.07;;;11.33;;
21621;SDS011;10973;46.706;12.340;2023-03-01T08:06:29;20.67;;;10.67;;
21621;SDS011;10973;46.706;12.340;2023-03-01T08:08:57;15.33;;;11.00;;
21621;SDS011;10973;46.706;12.340;2023-03-01T08:11:24;13.83;;;10.63;;
21621;SDS011;10973;46.706;12.340;2023-03-01T08:13:51;15.17;;;10.63;;
21621;SDS011;10973;46.706;12.340;2023-03-01T08:16:20;14.27;;;9.90;;
21621;SDS011;10973;46.706;12.340;2023-03-01T08:18:47;18.60;;;11.27;;
21621;SDS011;10973;46.706;12.340;2023-03-01T08:21:16;28.63;;;10.80;;
21621;SDS011;10973;46.706;12.340;2023-03-01T08:23:45;21.87;;;11.07;;
21621;SDS011;10973;46.706;12.340;2023-03-01T08:26:16;17.47;;;11.07;;
21621;SDS011;10973;46.706;12.340;2023-03-01T08:28:46;15.50;;;11.13;;
21621;SDS011;10973;46.706;12.340;2023-03-01T08:31:20;59.73;;;12.93;;
21621;SDS011;10973;46.706;12.340;2023-03-01T08:34:07;15.70;;;11.10;;
21621;SDS011;10973;46.706;12.340;2023-03-01T08:36:39;14.60;;;11.07;;
21621;SDS011;10973;46.706;12.340;2023-03-01T08:39:10;28.37;;;11.60;;
21621;SDS011;10973;46.706;12.340;2023-03-01T08:41:42;17.50;;;11.20;;
21621;SDS011;10973;46.706;12.340;2023-03-01T08:44:12;17.87;;;11.17;;
21621;SDS011;10973;46.706;12.340;2023-03-01T08:46:42;16.90;;;11.47;;
21621;SDS011;10973;46.706;12.340;2023-03-01T08:49:11;18.07;;;11.33;;
21621;SDS011;10973;46.706;12.340;2023-03-01T08:51:46;13.63;;;10.40;;
21621;SDS011;10973;46.706;12.340;2023-03-01T08:54:19;14.00;;;10.67;;
21621;SDS011;10973;46.706;12.340;2023-03-01T08:56:48;17.57;;;11.67;;
21621;SDS011;10973;46.706;12.340;2023-03-01T08:59:16;14.53;;;11.37;;
21621;SDS011;10973;46.706;12.340;2023-03-01T09:01:44;21.33;;;13.70;;
21621;SDS011;10973;46.706;12.340;2023-03-01T09:04:12;20.27;;;13.50;;
21621;SDS011;10973;46.706;12.340;2023-03-01T09:06:41;22.20;;;12.90;;
21621;SDS011;10973;46.706;12.340;2023-03-01T09:09:13;23.73;;;13.43;;
21621;SDS011;10973;46.706;12.340;2023-03-01T09:11:43;29.40;;;16.43;;
21621;SDS011;10973;46.706;12.340;2023-03-01T09:14:12;35.70;;;16.00;;
21621;SDS011;10973;46.706;12.340;2023-03-01T09:16:40;25.07;;;15.40;;
21621;SDS011;10973;46.706;12.340;2023-03-01T09:19:08;27.07;;;17.10;;
21621;SDS011;10973;46.706;12.340;2023-03-01T09:21:35;20.83;;;12.80;;
21621;SDS011;10973;46.706;12.340;2023-03-01T09:24:08;17.60;;;12.67;;
21621;SDS011;10973;46.706;12.340;2023-03-01T09:26:40;18.87;;;12.17;;
21621;SDS011;10973;46.706;12.340;2023-03-01T09:29:08;16.17;;;11.60;;
21621;SDS011;10973;46.706;12.340;2023-03-01T09:31:36;17.13;;;11.87;;
21621;SDS011;10973;46.706;12.340;2023-03-01T09:34:04;18.53;;;11.60;;
21621;SDS011;10973;46.706;12.340;2023-03-01T09:36:32;18.13;;;12.63;;
21621;SDS011;10973;46.706;12.340;2023-03-01T09:39:00;17.23;;;12.13;;
21621;SDS011;10973;46.706;12.340;2023-03-01T09:47:24;19.43;;;11.43;;
21621;SDS011;10973;46.706;12.340;2023-03-01T09:50:15;15.57;;;10.97;;
21621;SDS011;10973;46.706;12.340;2023-03-01T09:53:02;14.93;;;10.97;;
21621;SDS011;10973;46.706;12.340;2023-03-01T09:55:40;17.07;;;10.53;;
21621;SDS011;10973;46.706;12.340;2023-03-01T10:09:40;16.00;;;11.30;;
21621;SDS011;10973;46.706;12.340;2023-03-01T10:12:15;20.17;;;11.50;;
21621;SDS011;10973;46.706;12.340;2023-03-01T10:23:27;14.23;;;10.97;;
21621;SDS011;10973;46.706;12.340;2023-03-01T10:29:07;18.40;;;11.80;;
21621;SDS011;10973;46.706;12.340;2023-03-01T10:36:57;18.83;;;12.50;;
21621;SDS011;10973;46.706;12.340;2023-03-01T10:40:00;17.57;;;12.00;;
21621;SDS011;10973;46.706;12.340;2023-03-01T10:42:32;17.67;;;11.67;;
21621;SDS011;10973;46.706;12.340;2023-03-01T10:53:38;29.90;;;13.47;;
21621;SDS011;10973;46.706;12.340;2023-03-01T11:00:22;19.40;;;12.83;;
21621;SDS011;10973;46.706;12.340;2023-03-01T11:05:49;18.07;;;11.47;;
21621;SDS011;10973;46.706;12.340;2023-03-01T11:08:38;16.17;;;12.00;;
21621;SDS011;10973;46.706;12.340;2023-03-01T11:11:14;17.67;;;11.93;;
21621;SDS011;10973;46.706;12.340;2023-03-01T11:13:51;16.93;;;12.70;;
21621;SDS011;10973;46.706;12.340;2023-03-01T11:16:35;16.43;;;11.37;;
21621;SDS011;10973;46.706;12.340;2023-03-01T11:21:39;14.67;;;11.53;;
21621;SDS011;10973;46.706;12.340;2023-03-01T11:24:46;18.87;;;11.93;;
21621;SDS011;10973;46.706;12.340;2023-03-01T11:27:36;17.80;;;12.90;;
21621;SDS011;10973;46.706;12.340;2023-03-01T11:35:57;17.17;;;11.53;;
21621;SDS011;10973;46.706;12.340;2023-03-01T11:38:36;14.80;;;10.80;;
21621;SDS011;10973;46.706;12.340;2023-03-01T11:43:55;19.20;;;11.40;;
21621;SDS011;10973;46.706;12.340;2023-03-01T11:46:31;16.93;;;12.43;;
21621;SDS011;10973;46.706;12.340;2023-03-01T12:01:13;16.20;;;11.43;;
21621;SDS011;10973;46.706;12.340;2023-03-01T12:04:21;17.37;;;12.10;;
21621;SDS011;10973;46.706;12.340;2023-03-01T12:14:20;14.10;;;11.30;;
21621;SDS011;10973;46.706;12.340;2023-03-01T12:25:35;17.33;;;11.47;;
21621;SDS011;10973;46.706;12.340;2023-03-01T12:28:41;17.40;;;11.90;;
21621;SDS011;10973;46.706;12.340;2023-03-01T12:46:00;16.33;;;11.63;;
21621;SDS011;10973;46.706;12.340;2023-03-01T12:51:39;15.27;;;11.07;;
21621;SDS011;10973;46.706;12.340;2023-03-01T12:54:27;15.90;;;10.47;;
21621;SDS011;10973;46.706;12.340;2023-03-01T13:03:19;14.63;;;10.17;;
21621;SDS011;10973;46.706;12.340;2023-03-01T13:17:57;48.10;;;26.77;;
21621;SDS011;10973;46.706;12.340;2023-03-01T13:20:34;23.37;;;16.17;;
21621;SDS011;10973;46.706;12.340;2023-03-01T13:33:47;16.60;;;11.53;;
21621;SDS011;10973;46.706;12.340;2023-03-01T13:38:56;17.80;;;13.33;;
21621;SDS011;10973;46.706;12.340;2023-03-01T13:47:07;16.83;;;13.27;;
21621;SDS011;10973;46.706;12.340;2023-03-01T13:49:53;15.97;;;12.60;;
21621;SDS011;10973;46.706;12.340;2023-03-01T13:52:37;13.13;;;10.27;;
21621;SDS011;10973;46.706;12.340;2023-03-01T13:55:21;15.73;;;11.67;;
21621;SDS011;10973;46.706;12.340;2023-03-01T13:58:12;15.57;;;12.50;;
21621;SDS011;10973;46.706;12.340;2023-03-01T14:00:58;18.33;;;12.07;;
21621;SDS011;10973;46.706;12.340;2023-03-01T14:03:32;15.73;;;12.83;;
21621;SDS011;10973;46.706;12.340;2023-03-01T14:06:09;15.87;;;12.00;;
21621;SDS011;10973;46.706;12.340;2023-03-01T14:08:50;15.67;;;11.10;;
21621;SDS011;10973;46.706;12.340;2023-03-01T14:14:44;16.93;;;11.50;;
21621;SDS011;10973;46.706;12.340;2023-03-01T14:17:42;14.17;;;10.97;;
21621;SDS011;10973;46.706;12.340;2023-03-01T14:20:43;13.87;;;11.63;;
21621;SDS011;10973;46.706;12.340;2023-03-01T14:23:12;19.90;;;11.27;;
21621;SDS011;10973;46.706;12.340;2023-03-01T14:25:51;18.10;;;12.93;;
21621;SDS011;10973;46.706;12.340;2023-03-01T14:28:27;15.77;;;12.50;;
21621;SDS011;10973;46.706;12.340;2023-03-01T14:30:59;24.03;;;12.73;;
21621;SDS011;10973;46.706;12.340;2023-03-01T14:33:34;15.67;;;12.00;;
21621;SDS011;10973;46.706;12.340;2023-03-01T14:38:34;15.37;;;11.93;;
21621;SDS011;10973;46.706;12.340;2023-03-01T14:41:06;15.53;;;11.37;;
21621;SDS011;10973;46.706;12.340;2023-03-01T14:46:38;17.43;;;13.43;;
21621;SDS011;10973;46.706;12.340;2023-03-01T14:49:10;15.53;;;12.47;;
21621;SDS011;10973;46.706;12.340;2023-03-01T14:51:50;13.40;;;11.40;;
21621;SDS011;10973;46.706;12.340;2023-03-01T14:54:41;15.37;;;11.10;;
21621;SDS011;10973;46.706;12.340;2023-03-01T14:57:21;13.23;;;10.57;;
21621;SDS011;10973;46.706;12.340;2023-03-01T14:59:53;13.37;;;10.13;;
21621;SDS011;10973;46.706;12.340;2023-03-01T15:02:25;13.93;;;11.00;;
21621;SDS011;10973;46.706;12.340;2023-03-01T15:04:55;15.57;;;11.47;;
21621;SDS011;10973;46.706;12.340;2023-03-01T15:07:28;13.33;;;10.83;;
21621;SDS011;10973;46.706;12.340;2023-03-01T15:10:00;16.10;;;11.70;;
21621;SDS011;10973;46.706;12.340;2023-03-01T15:12:37;14.53;;;11.20;;
21621;SDS011;10973;46.706;12.340;2023-03-01T15:15:49;17.33;;;11.57;;
21621;SDS011;10973;46.706;12.340;2023-03-01T15:21:52;14.23;;;10.43;;
21621;SDS011;10973;46.706;12.340;2023-03-01T15:24:25;14.10;;;10.43;;
21621;SDS011;10973;46.706;12.340;2023-03-01T15:26:55;14.40;;;10.50;;
21621;SDS011;10973;46.706;12.340;2023-03-01T15:29:26;14.47;;;10.83;;
21621;SDS011;10973;46.706;12.340;2023-03-01T15:34:31;26.47;;;17.67;;
21621;SDS011;10973;46.706;12.340;2023-03-01T15:37:02;20.73;;;15.80;;
21621;SDS011;10973;46.706;12.340;2023-03-01T15:44:40;16.63;;;12.93;;
21621;SDS011;10973;46.706;12.340;2023-03-01T15:50:25;17.90;;;13.90;;
21621;SDS011;10973;46.706;12.340;2023-03-01T15:53:00;16.80;;;12.60;;
21621;SDS011;10973;46.706;12.340;2023-03-01T15:55:32;21.23;;;15.87;;
21621;SDS011;10973;46.706;12.340;2023-03-01T15:58:00;18.47;;;12.70;;
21621;SDS011;10973;46.706;12.340;2023-03-01T16:00:33;17.43;;;13.37;;
21621;SDS011;10973;46.706;12.340;2023-03-01T16:03:01;15.97;;;12.50;;
21621;SDS011;10973;46.706;12.340;2023-03-01T16:05:29;16.37;;;12.27;;
21621;SDS011;10973;46.706;12.340;2023-03-01T16:07:59;13.50;;;11.23;;
21621;SDS011;10973;46.706;12.340;2023-03-01T16:10:27;17.80;;;12.63;;
21621;SDS011;10973;46.706;12.340;2023-03-01T16:12:55;15.13;;;12.13;;
21621;SDS011;10973;46.706;12.340;2023-03-01T16:15:24;15.73;;;11.97;;
21621;SDS011;10973;46.706;12.340;2023-03-01T16:17:59;15.40;;;11.27;;
21621;SDS011;10973;46.706;12.340;2023-03-01T16:20:27;17.13;;;12.40;;
21621;SDS011;10973;46.706;12.340;2023-03-01T16:23:00;14.10;;;11.17;;
21621;SDS011;10973;46.706;12.340;2023-03-01T16:25:31;18.23;;;12.83;;
21621;SDS011;10973;46.706;12.340;2023-03-01T16:28:01;17.17;;;13.00;;
21621;SDS011;10973;46.706;12.340;2023-03-01T16:30:29;18.07;;;11.63;;
21621;SDS011;10973;46.706;12.340;2023-03-01T16:32:57;20.97;;;12.37;;
21621;SDS011;10973;46.706;12.340;2023-03-01T16:35:25;19.73;;;12.83;;
21621;SDS011;10973;46.706;12.340;2023-03-01T16:37:53;15.70;;;11.60;;
21621;SDS011;10973;46.706;12.340;2023-03-01T16:40:29;12.43;;;9.77;;
21621;SDS011;10973;46.706;12.340;2023-03-01T16:42:57;18.63;;;11.17;;
21621;SDS011;10973;46.706;12.340;2023-03-01T16:45:26;14.17;;;10.83;;
21621;SDS011;10973;46.706;12.340;2023-03-01T16:48:03;15.83;;;11.00;;
21621;SDS011;10973;46.706;12.340;2023-03-01T16:50:30;19.33;;;12.60;;
21621;SDS011;10973;46.706;12.340;2023-03-01T16:52:58;13.43;;;10.63;;
21621;SDS011;10973;46.706;12.340;2023-03-01T16:55:26;15.83;;;11.57;;
21621;SDS011;10973;46.706;12.340;2023-03-01T16:58:06;15.47;;;11.43;;
21621;SDS011;10973;46.706;12.340;2023-03-01T17:00:33;15.33;;;11.20;;
21621;SDS011;10973;46.706;12.340;2023-03-01T17:06:24;15.33;;;11.00;;
21621;SDS011;10973;46.706;12.340;2023-03-01T17:08:51;15.43;;;11.83;;
21621;SDS011;10973;46.706;12.340;2023-03-01T17:11:18;18.27;;;12.60;;
21621;SDS011;10973;46.706;12.340;2023-03-01T17:13:46;18.67;;;13.70;;
21621;SDS011;10973;46.706;12.340;2023-03-01T17:16:15;20.07;;;13.17;;
21621;SDS011;10973;46.706;12.340;2023-03-01T17:18:46;16.43;;;11.77;;
21621;SDS011;10973;46.706;12.340;2023-03-01T17:21:15;16.33;;;11.90;;
21621;SDS011;10973;46.706;12.340;2023-03-01T17:23:43;20.03;;;11.93;;
21621;SDS011;10973;46.706;12.340;2023-03-01T17:26:12;17.33;;;12.23;;
21621;SDS011;10973;46.706;12.340;2023-03-01T17:28:39;16.97;;;12.03;;
21621;SDS011;10973;46.706;12.340;2023-03-01T17:31:07;16.23;;;11.40;;
21621;SDS011;10973;46.706;12.340;2023-03-01T17:33:35;16.20;;;11.57;;
21621;SDS011;10973;46.706;12.340;2023-03-01T17:36:03;19.13;;;12.17;;
21621;SDS011;10973;46.706;12.340;2023-03-01T17:38:30;19.07;;;14.30;;
21621;SDS011;10973;46.706;12.340;2023-03-01T17:44:40;20.00;;;15.17;;
21621;SDS011;10973;46.706;12.340;2023-03-01T17:47:09;21.63;;;14.33;;
